KDAA/DAA METAR and TAF weather

Enter ICAO airport designator
Station Type Date Time Source
KDAA METAR 2019/10/21 04:56 UTC NOAA

KDAA 210456Z AUTO 32008KT 10SM BKN010 OVC018 13/11 A2998 RMK AO2 CIG 010V018 SLP155 T01310112 401390098 $


Station Type Date Time Source
KDAA Decoded METAR 2019/10/21 04:56 UTC NOAA

Fort Belvoir, VA, United States (KDAA) 38-43N 077-11W
Oct 21, 2019 - 12:56 AM EDT / 2019.10.21 0456 UTC
Wind: from the NW (320 degrees) at 9 MPH (8 KT):0
Visibility: 10 mile(s):0
Sky conditions: overcast
Temperature: 55.6 F (13.1 C)
Dew Point: 52.2 F (11.2 C)
Relative Humidity: 88%
Pressure (altimeter): 29.98 in. Hg (1015 hPa)
ob: KDAA 210456Z AUTO 32008KT 10SM BKN010 OVC018 13/11 A2998 RMK AO2 CIG 010V018 SLP155 T01310112 401390098
cycle: 5

Station Type Date Time Source
KDAA TAF 2019/10/19 01:15 UTC NOAA

TAF KDAA 190100Z 1901/2007 32009KT 9999 FEW200 QNH2999INS
BECMG 2005/2006 VRB06KT 9999 FEW020 BKN080 QNH2996INS TX17/1917Z TN05/1911Z LAST NO
AMDS AFT 1901 NEXT 2109

Example: see airport list